Airport Name : Ingeniero Alberto Acuna Ongay Intl

Other Name : Campeche

ICAO : MMCP

IATA : CPE

FAA :

Latitude : 19.816794

Longitude : -90.500314

Country : Mexico

Local Date and Time : 5/25/2018 5:56:00 AM

 

TAF (Terminal Aerodrome Forecast)

TAF MMCP 250504Z 2506/2606 02005KT P6SM SCT080 TEMPO 2510/2514 5SM HZ BKN015 FM251800 34025KT P6SM BKN020 BKN100 TEMPO 2521/2601 5SM TSRA BKN020CB

 

METAR (METeorological Aerodrome Report)

MMCP 250954Z 00000KT 7SM FEW015 SCT080 25/23 A2983 RMK 8/130

MMCP 250908Z RTD 00000KT 7SM FEW015 SCT080 25/23 A2983 RMK 8/130 RTS